sensor_id;sensor_type;location;lat;lon;timestamp;temperature;humidity
41876;DHT22;27555;50.808;4.402;2022-10-30T00:01:02;17.90;99.90
41876;DHT22;27555;50.808;4.402;2022-10-30T00:03:28;17.90;99.90
41876;DHT22;27555;50.808;4.402;2022-10-30T00:05:53;17.80;99.90
41876;DHT22;27555;50.808;4.402;2022-10-30T00:08:20;17.90;99.90
41876;DHT22;27555;50.808;4.402;2022-10-30T00:10:47;17.80;99.90
41876;DHT22;27555;50.808;4.402;2022-10-30T00:13:15;17.70;99.90
41876;DHT22;27555;50.808;4.402;2022-10-30T00:15:50;17.70;99.90
41876;DHT22;27555;50.808;4.402;2022-10-30T00:18:16;17.70;99.90
41876;DHT22;27555;50.808;4.402;2022-10-30T00:20:42;17.60;99.90
41876;DHT22;27555;50.808;4.402;2022-10-30T00:23:07;17.60;99.90
41876;DHT22;27555;50.808;4.402;2022-10-30T00:25:34;17.50;99.90
41876;DHT22;27555;50.808;4.402;2022-10-30T00:28:02;17.60;99.90
41876;DHT22;27555;50.808;4.402;2022-10-30T00:30:28;17.60;99.90
41876;DHT22;27555;50.808;4.402;2022-10-30T00:32:54;17.60;99.90
41876;DHT22;27555;50.808;4.402;2022-10-30T00:35:19;17.50;99.90
41876;DHT22;27555;50.808;4.402;2022-10-30T00:37:45;17.50;99.90
41876;DHT22;27555;50.808;4.402;2022-10-30T00:40:15;17.40;99.90
41876;DHT22;27555;50.808;4.402;2022-10-30T00:42:41;17.40;99.90
41876;DHT22;27555;50.808;4.402;2022-10-30T00:45:12;17.40;99.90
41876;DHT22;27555;50.808;4.402;2022-10-30T00:47:42;17.50;99.90
41876;DHT22;27555;50.808;4.402;2022-10-30T00:50:33;17.50;99.90
41876;DHT22;27555;50.808;4.402;2022-10-30T00:53:04;17.40;99.90
41876;DHT22;27555;50.808;4.402;2022-10-30T00:55:34;17.40;99.90
41876;DHT22;27555;50.808;4.402;2022-10-30T00:58:04;17.30;99.90
41876;DHT22;27555;50.808;4.402;2022-10-30T01:00:32;17.30;99.90
41876;DHT22;27555;50.808;4.402;2022-10-30T01:02:59;17.30;99.90
41876;DHT22;27555;50.808;4.402;2022-10-30T01:05:27;17.30;99.90
41876;DHT22;27555;50.808;4.402;2022-10-30T01:07:54;17.30;99.90
41876;DHT22;27555;50.808;4.402;2022-10-30T01:10:20;17.30;99.90
41876;DHT22;27555;50.808;4.402;2022-10-30T01:12:48;17.30;99.90
41876;DHT22;27555;50.808;4.402;2022-10-30T01:15:15;17.20;99.90
41876;DHT22;27555;50.808;4.402;2022-10-30T01:18:12;17.10;99.90
41876;DHT22;27555;50.808;4.402;2022-10-30T01:21:06;17.00;99.90
41876;DHT22;27555;50.808;4.402;2022-10-30T01:23:49;17.00;99.90
41876;DHT22;27555;50.808;4.402;2022-10-30T01:32:25;16.80;99.90
41876;DHT22;27555;50.808;4.402;2022-10-30T01:40:18;16.70;99.90
41876;DHT22;27555;50.808;4.402;2022-10-30T01:42:48;16.70;99.90
41876;DHT22;27555;50.808;4.402;2022-10-30T01:50:55;16.70;99.90
41876;DHT22;27555;50.808;4.402;2022-10-30T01:56:21;16.60;99.90
41876;DHT22;27555;50.808;4.402;2022-10-30T01:59:08;16.60;99.90
41876;DHT22;27555;50.808;4.402;2022-10-30T02:01:37;16.60;99.90
41876;DHT22;27555;50.808;4.402;2022-10-30T02:04:08;16.60;99.90
41876;DHT22;27555;50.808;4.402;2022-10-30T02:06:35;16.60;99.90
41876;DHT22;27555;50.808;4.402;2022-10-30T02:09:02;16.50;99.90
41876;DHT22;27555;50.808;4.402;2022-10-30T02:11:29;16.40;99.90
41876;DHT22;27555;50.808;4.402;2022-10-30T02:13:57;16.50;99.90
41876;DHT22;27555;50.808;4.402;2022-10-30T02:16:26;16.40;99.90
41876;DHT22;27555;50.808;4.402;2022-10-30T02:18:51;16.40;99.90
41876;DHT22;27555;50.808;4.402;2022-10-30T02:21:17;16.40;99.90
41876;DHT22;27555;50.808;4.402;2022-10-30T02:23:43;16.40;99.90
41876;DHT22;27555;50.808;4.402;2022-10-30T02:26:08;16.40;99.90
41876;DHT22;27555;50.808;4.402;2022-10-30T02:28:34;16.40;99.90
41876;DHT22;27555;50.808;4.402;2022-10-30T02:30:59;16.50;99.90
41876;DHT22;27555;50.808;4.402;2022-10-30T02:33:25;16.40;99.90
41876;DHT22;27555;50.808;4.402;2022-10-30T02:35:50;16.40;99.90
41876;DHT22;27555;50.808;4.402;2022-10-30T02:38:17;16.40;99.90
41876;DHT22;27555;50.808;4.402;2022-10-30T02:40:43;16.40;99.90
41876;DHT22;27555;50.808;4.402;2022-10-30T02:43:08;16.40;99.90
41876;DHT22;27555;50.808;4.402;2022-10-30T02:45:34;16.40;99.90
41876;DHT22;27555;50.808;4.402;2022-10-30T02:47:59;16.40;99.90
41876;DHT22;27555;50.808;4.402;2022-10-30T02:50:30;16.40;99.90
41876;DHT22;27555;50.808;4.402;2022-10-30T02:52:57;16.30;99.90
41876;DHT22;27555;50.808;4.402;2022-10-30T02:55:23;16.30;99.90
41876;DHT22;27555;50.808;4.402;2022-10-30T02:57:49;16.30;99.90
41876;DHT22;27555;50.808;4.402;2022-10-30T03:00:14;16.20;99.90
41876;DHT22;27555;50.808;4.402;2022-10-30T03:02:41;16.20;99.90
41876;DHT22;27555;50.808;4.402;2022-10-30T03:05:07;16.20;99.90
41876;DHT22;27555;50.808;4.402;2022-10-30T03:07:33;16.20;99.90
41876;DHT22;27555;50.808;4.402;2022-10-30T03:09:58;16.20;99.90
41876;DHT22;27555;50.808;4.402;2022-10-30T03:12:24;16.20;99.90
41876;DHT22;27555;50.808;4.402;2022-10-30T03:14:51;16.20;99.90
41876;DHT22;27555;50.808;4.402;2022-10-30T03:17:17;16.20;99.90
41876;DHT22;27555;50.808;4.402;2022-10-30T03:19:42;16.10;99.90
41876;DHT22;27555;50.808;4.402;2022-10-30T03:22:08;16.10;99.90
41876;DHT22;27555;50.808;4.402;2022-10-30T03:24:34;16.10;99.90
41876;DHT22;27555;50.808;4.402;2022-10-30T03:26:59;16.10;99.90
41876;DHT22;27555;50.808;4.402;2022-10-30T03:29:25;16.10;99.90
41876;DHT22;27555;50.808;4.402;2022-10-30T03:31:50;16.10;99.90
41876;DHT22;27555;50.808;4.402;2022-10-30T03:34:16;16.10;99.90
41876;DHT22;27555;50.808;4.402;2022-10-30T03:36:41;16.10;99.90
41876;DHT22;27555;50.808;4.402;2022-10-30T03:39:07;16.10;99.90
41876;DHT22;27555;50.808;4.402;2022-10-30T03:41:32;16.10;99.90
41876;DHT22;27555;50.808;4.402;2022-10-30T03:43:58;16.10;99.90
41876;DHT22;27555;50.808;4.402;2022-10-30T03:46:24;16.10;99.90
41876;DHT22;27555;50.808;4.402;2022-10-30T03:48:51;16.00;99.90
41876;DHT22;27555;50.808;4.402;2022-10-30T03:51:17;16.10;99.90
41876;DHT22;27555;50.808;4.402;2022-10-30T03:53:44;16.00;99.90
41876;DHT22;27555;50.808;4.402;2022-10-30T03:56:09;16.10;99.90
41876;DHT22;27555;50.808;4.402;2022-10-30T03:58:35;16.00;99.90
41876;DHT22;27555;50.808;4.402;2022-10-30T04:01:03;15.90;99.90
41876;DHT22;27555;50.808;4.402;2022-10-30T04:03:28;15.90;99.90
41876;DHT22;27555;50.808;4.402;2022-10-30T04:05:55;16.00;99.90
41876;DHT22;27555;50.808;4.402;2022-10-30T04:08:20;15.90;99.90
41876;DHT22;27555;50.808;4.402;2022-10-30T04:10:46;15.90;99.90
41876;DHT22;27555;50.808;4.402;2022-10-30T04:13:14;15.90;99.90
41876;DHT22;27555;50.808;4.402;2022-10-30T04:15:40;15.80;99.90
41876;DHT22;27555;50.808;4.402;2022-10-30T04:18:07;15.80;99.90
41876;DHT22;27555;50.808;4.402;2022-10-30T04:20:34;15.80;99.90
41876;DHT22;27555;50.808;4.402;2022-10-30T04:23:02;15.80;99.90
41876;DHT22;27555;50.808;4.402;2022-10-30T04:25:28;15.80;99.90
41876;DHT22;27555;50.808;4.402;2022-10-30T04:27:54;15.80;99.90
41876;DHT22;27555;50.808;4.402;2022-10-30T04:30:21;15.70;99.90
41876;DHT22;27555;50.808;4.402;2022-10-30T04:32:51;15.30;99.90
41876;DHT22;27555;50.808;4.402;2022-10-30T04:35:19;15.30;99.90
41876;DHT22;27555;50.808;4.402;2022-10-30T04:37:56;15.20;99.90
41876;DHT22;27555;50.808;4.402;2022-10-30T04:40:23;15.40;99.90
41876;DHT22;27555;50.808;4.402;2022-10-30T04:42:49;15.50;99.90
41876;DHT22;27555;50.808;4.402;2022-10-30T04:45:15;15.60;99.90
41876;DHT22;27555;50.808;4.402;2022-10-30T04:47:41;15.70;99.90
41876;DHT22;27555;50.808;4.402;2022-10-30T04:50:07;15.70;99.90
41876;DHT22;27555;50.808;4.402;2022-10-30T04:52:33;15.80;99.90
41876;DHT22;27555;50.808;4.402;2022-10-30T04:54:58;15.90;99.90
41876;DHT22;27555;50.808;4.402;2022-10-30T04:57:24;15.90;99.90
41876;DHT22;27555;50.808;4.402;2022-10-30T04:59:49;15.90;99.90
41876;DHT22;27555;50.808;4.402;2022-10-30T05:02:15;15.80;99.90
41876;DHT22;27555;50.808;4.402;2022-10-30T05:04:44;15.80;99.90
41876;DHT22;27555;50.808;4.402;2022-10-30T05:07:10;15.70;99.90
41876;DHT22;27555;50.808;4.402;2022-10-30T05:09:36;15.70;99.90
41876;DHT22;27555;50.808;4.402;2022-10-30T05:12:02;15.60;99.90
41876;DHT22;27555;50.808;4.402;2022-10-30T05:14:31;15.50;99.90
41876;DHT22;27555;50.808;4.402;2022-10-30T05:16:57;15.50;99.90
41876;DHT22;27555;50.808;4.402;2022-10-30T05:19:23;15.50;99.90
41876;DHT22;27555;50.808;4.402;2022-10-30T05:21:48;15.40;99.90
41876;DHT22;27555;50.808;4.402;2022-10-30T05:24:14;15.40;99.90
41876;DHT22;27555;50.808;4.402;2022-10-30T05:26:40;15.40;99.90
41876;DHT22;27555;50.808;4.402;2022-10-30T05:29:05;15.40;99.90
41876;DHT22;27555;50.808;4.402;2022-10-30T05:31:31;15.40;99.90
41876;DHT22;27555;50.808;4.402;2022-10-30T05:33:57;15.40;99.90
41876;DHT22;27555;50.808;4.402;2022-10-30T05:36:22;15.30;99.90
41876;DHT22;27555;50.808;4.402;2022-10-30T05:38:48;15.30;99.90
41876;DHT22;27555;50.808;4.402;2022-10-30T05:41:13;15.30;99.90
41876;DHT22;27555;50.808;4.402;2022-10-30T05:43:39;15.20;99.90
41876;DHT22;27555;50.808;4.402;2022-10-30T05:46:04;15.20;99.90
41876;DHT22;27555;50.808;4.402;2022-10-30T05:48:30;15.10;99.90
41876;DHT22;27555;50.808;4.402;2022-10-30T05:50:56;15.10;99.90
41876;DHT22;27555;50.808;4.402;2022-10-30T05:53:21;15.20;99.90
41876;DHT22;27555;50.808;4.402;2022-10-30T05:55:48;15.10;99.90
41876;DHT22;27555;50.808;4.402;2022-10-30T05:58:13;15.10;99.90
41876;DHT22;27555;50.808;4.402;2022-10-30T06:00:40;15.10;99.90
41876;DHT22;27555;50.808;4.402;2022-10-30T06:03:10;15.10;99.90
41876;DHT22;27555;50.808;4.402;2022-10-30T06:05:37;15.10;99.90
41876;DHT22;27555;50.808;4.402;2022-10-30T06:08:04;15.10;99.90
41876;DHT22;27555;50.808;4.402;2022-10-30T06:10:30;15.10;99.90
41876;DHT22;27555;50.808;4.402;2022-10-30T06:12:58;15.10;99.90
41876;DHT22;27555;50.808;4.402;2022-10-30T06:15:25;15.10;99.90
41876;DHT22;27555;50.808;4.402;2022-10-30T06:17:51;15.10;99.90
41876;DHT22;27555;50.808;4.402;2022-10-30T06:20:18;15.10;99.90
41876;DHT22;27555;50.808;4.402;2022-10-30T06:25:20;15.10;99.90
41876;DHT22;27555;50.808;4.402;2022-10-30T06:27:46;15.10;99.90
41876;DHT22;27555;50.808;4.402;2022-10-30T06:30:11;15.10;99.90
41876;DHT22;27555;50.808;4.402;2022-10-30T06:32:37;15.10;99.90
41876;DHT22;27555;50.808;4.402;2022-10-30T06:35:03;15.10;99.90
41876;DHT22;27555;50.808;4.402;2022-10-30T06:37:28;15.10;99.90
41876;DHT22;27555;50.808;4.402;2022-10-30T06:39:54;15.10;99.90
41876;DHT22;27555;50.808;4.402;2022-10-30T06:42:20;15.10;99.90
41876;DHT22;27555;50.808;4.402;2022-10-30T06:44:45;15.20;99.90
41876;DHT22;27555;50.808;4.402;2022-10-30T06:47:13;15.20;99.90
41876;DHT22;27555;50.808;4.402;2022-10-30T06:49:39;15.30;99.90
41876;DHT22;27555;50.808;4.402;2022-10-30T06:52:05;15.40;99.90
41876;DHT22;27555;50.808;4.402;2022-10-30T06:54:30;15.30;99.90
41876;DHT22;27555;50.808;4.402;2022-10-30T06:56:56;15.30;99.90
41876;DHT22;27555;50.808;4.402;2022-10-30T06:59:21;15.20;99.90
41876;DHT22;27555;50.808;4.402;2022-10-30T07:01:47;15.30;99.90
41876;DHT22;27555;50.808;4.402;2022-10-30T07:04:13;15.30;99.90
41876;DHT22;27555;50.808;4.402;2022-10-30T07:06:38;15.30;99.90
41876;DHT22;27555;50.808;4.402;2022-10-30T07:09:04;15.40;99.90
41876;DHT22;27555;50.808;4.402;2022-10-30T07:11:29;15.40;99.90
41876;DHT22;27555;50.808;4.402;2022-10-30T07:13:55;15.50;99.90
41876;DHT22;27555;50.808;4.402;2022-10-30T07:16:20;15.50;99.90
41876;DHT22;27555;50.808;4.402;2022-10-30T07:18:46;15.60;99.90
41876;DHT22;27555;50.808;4.402;2022-10-30T07:21:13;15.70;99.90
41876;DHT22;27555;50.808;4.402;2022-10-30T07:23:40;15.90;99.90
41876;DHT22;27555;50.808;4.402;2022-10-30T07:26:05;16.20;99.90
41876;DHT22;27555;50.808;4.402;2022-10-30T07:28:32;16.10;99.90
41876;DHT22;27555;50.808;4.402;2022-10-30T07:30:58;16.20;99.90
41876;DHT22;27555;50.808;4.402;2022-10-30T07:33:23;16.50;99.90
41876;DHT22;27555;50.808;4.402;2022-10-30T07:35:49;16.70;99.90
41876;DHT22;27555;50.808;4.402;2022-10-30T07:38:14;17.00;99.90
41876;DHT22;27555;50.808;4.402;2022-10-30T07:40:42;17.20;99.90
41876;DHT22;27555;50.808;4.402;2022-10-30T07:43:08;17.30;99.90
41876;DHT22;27555;50.808;4.402;2022-10-30T07:45:38;17.50;99.90
41876;DHT22;27555;50.808;4.402;2022-10-30T07:48:04;17.70;99.90
41876;DHT22;27555;50.808;4.402;2022-10-30T07:50:30;17.80;99.90
41876;DHT22;27555;50.808;4.402;2022-10-30T07:52:56;17.90;99.90
41876;DHT22;27555;50.808;4.402;2022-10-30T07:55:22;17.90;99.90
41876;DHT22;27555;50.808;4.402;2022-10-30T07:57:48;17.90;99.90
41876;DHT22;27555;50.808;4.402;2022-10-30T08:00:13;18.00;99.90
41876;DHT22;27555;50.808;4.402;2022-10-30T08:02:40;18.10;99.90
41876;DHT22;27555;50.808;4.402;2022-10-30T08:05:06;18.30;99.90
41876;DHT22;27555;50.808;4.402;2022-10-30T08:07:33;18.60;99.90
41876;DHT22;27555;50.808;4.402;2022-10-30T08:09:59;18.70;99.90
41876;DHT22;27555;50.808;4.402;2022-10-30T08:12:25;18.90;99.90
41876;DHT22;27555;50.808;4.402;2022-10-30T08:14:52;19.20;99.90
41876;DHT22;27555;50.808;4.402;2022-10-30T08:17:18;19.60;99.90
41876;DHT22;27555;50.808;4.402;2022-10-30T08:19:44;19.70;99.90
41876;DHT22;27555;50.808;4.402;2022-10-30T08:22:10;19.60;99.90
41876;DHT22;27555;50.808;4.402;2022-10-30T08:24:36;19.50;99.90
41876;DHT22;27555;50.808;4.402;2022-10-30T08:27:02;19.40;99.90
41876;DHT22;27555;50.808;4.402;2022-10-30T08:29:29;19.30;99.90
41876;DHT22;27555;50.808;4.402;2022-10-30T08:31:54;19.10;99.90
41876;DHT22;27555;50.808;4.402;2022-10-30T08:34:20;19.10;99.90
41876;DHT22;27555;50.808;4.402;2022-10-30T08:36:50;19.10;99.90
41876;DHT22;27555;50.808;4.402;2022-10-30T08:39:16;19.10;99.90
41876;DHT22;27555;50.808;4.402;2022-10-30T08:41:42;19.10;99.90
41876;DHT22;27555;50.808;4.402;2022-10-30T08:44:08;19.10;99.90
41876;DHT22;27555;50.808;4.402;2022-10-30T08:46:33;19.20;99.90
41876;DHT22;27555;50.808;4.402;2022-10-30T08:48:59;19.40;99.90
41876;DHT22;27555;50.808;4.402;2022-10-30T08:51:27;19.60;99.90
41876;DHT22;27555;50.808;4.402;2022-10-30T08:53:52;19.90;99.90
41876;DHT22;27555;50.808;4.402;2022-10-30T08:56:18;20.10;99.90
41876;DHT22;27555;50.808;4.402;2022-10-30T08:58:43;20.70;99.90
41876;DHT22;27555;50.808;4.402;2022-10-30T09:01:09;21.00;99.90
41876;DHT22;27555;50.808;4.402;2022-10-30T09:03:35;21.70;99.90
41876;DHT22;27555;50.808;4.402;2022-10-30T09:06:00;22.60;99.90
41876;DHT22;27555;50.808;4.402;2022-10-30T09:08:27;23.50;99.00
41876;DHT22;27555;50.808;4.402;2022-10-30T09:10:56;24.00;98.10
41876;DHT22;27555;50.808;4.402;2022-10-30T09:13:22;24.50;97.50
41876;DHT22;27555;50.808;4.402;2022-10-30T09:15:48;25.00;97.10
41876;DHT22;27555;50.808;4.402;2022-10-30T09:18:14;25.60;96.10
41876;DHT22;27555;50.808;4.402;2022-10-30T09:20:39;26.00;95.50
41876;DHT22;27555;50.808;4.402;2022-10-30T09:23:05;26.50;94.90
41876;DHT22;27555;50.808;4.402;2022-10-30T09:25:30;26.90;94.40
41876;DHT22;27555;50.808;4.402;2022-10-30T09:27:56;26.70;94.30
41876;DHT22;27555;50.808;4.402;2022-10-30T09:30:22;26.20;94.30
41876;DHT22;27555;50.808;4.402;2022-10-30T09:32:55;26.50;94.30
41876;DHT22;27555;50.808;4.402;2022-10-30T09:35:21;27.30;93.80
41876;DHT22;27555;50.808;4.402;2022-10-30T09:37:47;27.70;93.20
41876;DHT22;27555;50.808;4.402;2022-10-30T09:40:39;28.10;92.80
41876;DHT22;27555;50.808;4.402;2022-10-30T09:43:22;28.40;92.70
41876;DHT22;27555;50.808;4.402;2022-10-30T09:51:57;29.80;91.30
41876;DHT22;27555;50.808;4.402;2022-10-30T09:55:02;29.60;91.00
41876;DHT22;27555;50.808;4.402;2022-10-30T10:00:19;28.10;91.10
41876;DHT22;27555;50.808;4.402;2022-10-30T10:05:54;26.20;92.40
41876;DHT22;27555;50.808;4.402;2022-10-30T10:08:40;25.50;93.10
41876;DHT22;27555;50.808;4.402;2022-10-30T10:11:16;25.00;93.50
41876;DHT22;27555;50.808;4.402;2022-10-30T10:17:12;24.20;94.40
41876;DHT22;27555;50.808;4.402;2022-10-30T10:19:43;24.10;94.60
41876;DHT22;27555;50.808;4.402;2022-10-30T10:22:15;23.70;95.00
41876;DHT22;27555;50.808;4.402;2022-10-30T10:24:44;23.50;95.40
41876;DHT22;27555;50.808;4.402;2022-10-30T10:30:13;23.30;95.70
41876;DHT22;27555;50.808;4.402;2022-10-30T10:43:57;22.80;96.60
41876;DHT22;27555;50.808;4.402;2022-10-30T10:52:34;22.40;97.30
41876;DHT22;27555;50.808;4.402;2022-10-30T10:55:50;22.20;97.50
41876;DHT22;27555;50.808;4.402;2022-10-30T10:57:51;22.30;97.50
41876;DHT22;27555;50.808;4.402;2022-10-30T11:00:19;22.40;97.50
41876;DHT22;27555;50.808;4.402;2022-10-30T11:05:42;22.40;97.50
41876;DHT22;27555;50.808;4.402;2022-10-30T11:08:31;22.50;97.80
41876;DHT22;27555;50.808;4.402;2022-10-30T11:10:59;22.70;97.50
41876;DHT22;27555;50.808;4.402;2022-10-30T11:13:37;22.80;97.50
41876;DHT22;27555;50.808;4.402;2022-10-30T11:18:38;23.10;97.40
41876;DHT22;27555;50.808;4.402;2022-10-30T11:21:16;23.50;97.10
41876;DHT22;27555;50.808;4.402;2022-10-30T11:23:45;23.50;96.80
41876;DHT22;27555;50.808;4.402;2022-10-30T11:29:13;23.50;97.00
41876;DHT22;27555;50.808;4.402;2022-10-30T11:31:41;23.40;97.00
41876;DHT22;27555;50.808;4.402;2022-10-30T11:34:29;23.40;97.00
41876;DHT22;27555;50.808;4.402;2022-10-30T11:36:55;22.90;97.40
41876;DHT22;27555;50.808;4.402;2022-10-30T11:39:27;22.80;97.60
41876;DHT22;27555;50.808;4.402;2022-10-30T11:42:05;23.30;97.20
41876;DHT22;27555;50.808;4.402;2022-10-30T11:44:37;23.20;97.10
41876;DHT22;27555;50.808;4.402;2022-10-30T11:47:04;23.00;97.30
41876;DHT22;27555;50.808;4.402;2022-10-30T11:49:35;23.00;97.40
41876;DHT22;27555;50.808;4.402;2022-10-30T11:52:02;23.10;97.30
41876;DHT22;27555;50.808;4.402;2022-10-30T11:54:28;23.20;97.10
41876;DHT22;27555;50.808;4.402;2022-10-30T11:56:56;23.00;97.30
41876;DHT22;27555;50.808;4.402;2022-10-30T11:59:23;22.80;97.50
41876;DHT22;27555;50.808;4.402;2022-10-30T12:02:02;22.70;97.80
41876;DHT22;27555;50.808;4.402;2022-10-30T12:04:29;22.50;97.80
41876;DHT22;27555;50.808;4.402;2022-10-30T12:09:41;22.50;98.20
41876;DHT22;27555;50.808;4.402;2022-10-30T12:14:47;22.70;98.00
41876;DHT22;27555;50.808;4.402;2022-10-30T12:17:14;22.80;98.00
41876;DHT22;27555;50.808;4.402;2022-10-30T12:19:46;22.80;97.90
41876;DHT22;27555;50.808;4.402;2022-10-30T12:22:23;23.00;97.80
41876;DHT22;27555;50.808;4.402;2022-10-30T12:24:49;22.90;97.70
41876;DHT22;27555;50.808;4.402;2022-10-30T12:27:16;23.00;97.60
41876;DHT22;27555;50.808;4.402;2022-10-30T12:32:27;23.10;97.20
41876;DHT22;27555;50.808;4.402;2022-10-30T12:34:56;23.40;97.10
41876;DHT22;27555;50.808;4.402;2022-10-30T12:37:30;23.60;96.60
41876;DHT22;27555;50.808;4.402;2022-10-30T12:40:03;23.70;96.20
41876;DHT22;27555;50.808;4.402;2022-10-30T12:42:34;23.80;96.00
41876;DHT22;27555;50.808;4.402;2022-10-30T12:45:14;23.80;96.40
41876;DHT22;27555;50.808;4.402;2022-10-30T12:50:24;24.50;95.80
41876;DHT22;27555;50.808;4.402;2022-10-30T12:53:01;24.30;95.60
41876;DHT22;27555;50.808;4.402;2022-10-30T12:55:44;24.00;95.70
41876;DHT22;27555;50.808;4.402;2022-10-30T13:00:59;23.50;96.20
41876;DHT22;27555;50.808;4.402;2022-10-30T13:06:26;23.30;96.50
41876;DHT22;27555;50.808;4.402;2022-10-30T13:11:34;23.30;96.30
41876;DHT22;27555;50.808;4.402;2022-10-30T13:14:01;23.30;96.00
41876;DHT22;27555;50.808;4.402;2022-10-30T13:16:30;23.40;95.90
41876;DHT22;27555;50.808;4.402;2022-10-30T13:18:58;23.40;95.90
41876;DHT22;27555;50.808;4.402;2022-10-30T13:29:40;22.80;96.50
41876;DHT22;27555;50.808;4.402;2022-10-30T13:32:33;22.60;96.60
41876;DHT22;27555;50.808;4.402;2022-10-30T13:38:28;22.70;96.60
41876;DHT22;27555;50.808;4.402;2022-10-30T13:41:10;22.70;96.70
41876;DHT22;27555;50.808;4.402;2022-10-30T13:43:56;22.70;96.60
41876;DHT22;27555;50.808;4.402;2022-10-30T13:46:31;22.40;96.80
41876;DHT22;27555;50.808;4.402;2022-10-30T13:51:54;22.40;97.00
41876;DHT22;27555;50.808;4.402;2022-10-30T13:54:24;22.40;96.80
41876;DHT22;27555;50.808;4.402;2022-10-30T13:56:52;22.40;96.90
41876;DHT22;27555;50.808;4.402;2022-10-30T13:59:52;22.40;96.70
41876;DHT22;27555;50.808;4.402;2022-10-30T14:05:03;22.40;96.90
41876;DHT22;27555;50.808;4.402;2022-10-30T14:15:40;22.10;97.50
41876;DHT22;27555;50.808;4.402;2022-10-30T14:25:32;22.00;97.70
41876;DHT22;27555;50.808;4.402;2022-10-30T14:27:58;21.90;97.80
41876;DHT22;27555;50.808;4.402;2022-10-30T14:30:26;21.90;97.80
41876;DHT22;27555;50.808;4.402;2022-10-30T14:32:52;21.90;97.90
41876;DHT22;27555;50.808;4.402;2022-10-30T14:35:35;21.80;98.10
41876;DHT22;27555;50.808;4.402;2022-10-30T14:40:39;21.90;98.40
41876;DHT22;27555;50.808;4.402;2022-10-30T14:43:55;21.70;98.80
41876;DHT22;27555;50.808;4.402;2022-10-30T14:46:08;21.50;99.30
41876;DHT22;27555;50.808;4.402;2022-10-30T14:48:47;21.70;99.40
41876;DHT22;27555;50.808;4.402;2022-10-30T14:51:50;21.40;99.80
41876;DHT22;27555;50.808;4.402;2022-10-30T14:57:46;20.90;99.90
41876;DHT22;27555;50.808;4.402;2022-10-30T15:03:15;20.80;99.90
41876;DHT22;27555;50.808;4.402;2022-10-30T15:05:56;20.50;99.90
41876;DHT22;27555;50.808;4.402;2022-10-30T15:14:11;20.20;99.90
41876;DHT22;27555;50.808;4.402;2022-10-30T15:16:40;20.20;99.90
41876;DHT22;27555;50.808;4.402;2022-10-30T15:19:08;20.40;99.90
41876;DHT22;27555;50.808;4.402;2022-10-30T15:21:44;20.40;99.90
41876;DHT22;27555;50.808;4.402;2022-10-30T15:24:20;20.40;99.90
41876;DHT22;27555;50.808;4.402;2022-10-30T15:26:52;20.40;99.90
41876;DHT22;27555;50.808;4.402;2022-10-30T15:29:22;20.50;99.90
41876;DHT22;27555;50.808;4.402;2022-10-30T15:32:02;20.40;99.90
41876;DHT22;27555;50.808;4.402;2022-10-30T15:34:30;20.10;99.90
41876;DHT22;27555;50.808;4.402;2022-10-30T15:36:56;19.60;99.90
41876;DHT22;27555;50.808;4.402;2022-10-30T15:39:23;19.70;99.90
41876;DHT22;27555;50.808;4.402;2022-10-30T15:42:08;19.80;99.90
41876;DHT22;27555;50.808;4.402;2022-10-30T15:44:38;19.60;99.90
41876;DHT22;27555;50.808;4.402;2022-10-30T15:47:24;19.80;99.90
41876;DHT22;27555;50.808;4.402;2022-10-30T15:49:52;19.50;99.90
41876;DHT22;27555;50.808;4.402;2022-10-30T15:52:25;19.60;99.90
41876;DHT22;27555;50.808;4.402;2022-10-30T15:54:58;19.80;99.90
41876;DHT22;27555;50.808;4.402;2022-10-30T15:57:31;19.80;99.90
41876;DHT22;27555;50.808;4.402;2022-10-30T15:59:59;19.80;99.90
41876;DHT22;27555;50.808;4.402;2022-10-30T16:02:28;19.90;99.90
41876;DHT22;27555;50.808;4.402;2022-10-30T16:04:54;20.00;99.90
41876;DHT22;27555;50.808;4.402;2022-10-30T16:07:25;19.90;99.90
41876;DHT22;27555;50.808;4.402;2022-10-30T16:09:59;19.90;99.90
41876;DHT22;27555;50.808;4.402;2022-10-30T16:12:32;19.90;99.90
41876;DHT22;27555;50.808;4.402;2022-10-30T16:15:04;19.90;99.90
41876;DHT22;27555;50.808;4.402;2022-10-30T16:17:31;19.80;99.90
41876;DHT22;27555;50.808;4.402;2022-10-30T16:20:00;19.80;99.90
41876;DHT22;27555;50.808;4.402;2022-10-30T16:22:29;19.90;99.90
41876;DHT22;27555;50.808;4.402;2022-10-30T16:24:57;19.90;99.90
41876;DHT22;27555;50.808;4.402;2022-10-30T16:27:24;19.80;99.90
41876;DHT22;27555;50.808;4.402;2022-10-30T16:29:51;19.80;99.90
41876;DHT22;27555;50.808;4.402;2022-10-30T16:32:23;19.80;99.90
41876;DHT22;27555;50.808;4.402;2022-10-30T16:34:54;19.80;99.90
41876;DHT22;27555;50.808;4.402;2022-10-30T16:37:33;19.80;99.90
41876;DHT22;27555;50.808;4.402;2022-10-30T16:40:12;19.70;99.90
41876;DHT22;27555;50.808;4.402;2022-10-30T16:42:38;19.70;99.90
41876;DHT22;27555;50.808;4.402;2022-10-30T16:47:42;19.50;99.90
41876;DHT22;27555;50.808;4.402;2022-10-30T16:50:13;19.50;99.90
41876;DHT22;27555;50.808;4.402;2022-10-30T16:52:39;19.50;99.90
41876;DHT22;27555;50.808;4.402;2022-10-30T16:55:20;19.50;99.90
41876;DHT22;27555;50.808;4.402;2022-10-30T16:57:52;19.50;99.90
41876;DHT22;27555;50.808;4.402;2022-10-30T17:00:23;19.50;99.90
41876;DHT22;27555;50.808;4.402;2022-10-30T17:02:51;19.30;99.90
41876;DHT22;27555;50.808;4.402;2022-10-30T17:07:59;19.40;99.90
41876;DHT22;27555;50.808;4.402;2022-10-30T17:13:34;19.20;99.90
41876;DHT22;27555;50.808;4.402;2022-10-30T17:16:29;19.20;99.90
41876;DHT22;27555;50.808;4.402;2022-10-30T17:18:57;19.20;99.90
41876;DHT22;27555;50.808;4.402;2022-10-30T17:21:27;19.20;99.90
41876;DHT22;27555;50.808;4.402;2022-10-30T17:23:59;19.10;99.90
41876;DHT22;27555;50.808;4.402;2022-10-30T17:26:36;19.10;99.90
41876;DHT22;27555;50.808;4.402;2022-10-30T17:29:05;19.00;99.90
41876;DHT22;27555;50.808;4.402;2022-10-30T17:31:43;18.90;99.90
41876;DHT22;27555;50.808;4.402;2022-10-30T17:34:14;18.80;99.90
41876;DHT22;27555;50.808;4.402;2022-10-30T17:36:40;18.80;99.90
41876;DHT22;27555;50.808;4.402;2022-10-30T17:39:06;18.60;99.90
41876;DHT22;27555;50.808;4.402;2022-10-30T17:41:32;18.60;99.90
41876;DHT22;27555;50.808;4.402;2022-10-30T17:43:57;18.50;99.90
41876;DHT22;27555;50.808;4.402;2022-10-30T17:46:23;18.50;99.90
41876;DHT22;27555;50.808;4.402;2022-10-30T17:48:49;18.40;99.90
41876;DHT22;27555;50.808;4.402;2022-10-30T17:51:16;18.40;99.90
41876;DHT22;27555;50.808;4.402;2022-10-30T17:53:42;18.40;99.90
41876;DHT22;27555;50.808;4.402;2022-10-30T17:56:27;18.30;99.90
41876;DHT22;27555;50.808;4.402;2022-10-30T17:58:54;18.30;99.90
41876;DHT22;27555;50.808;4.402;2022-10-30T18:01:24;18.30;99.90
41876;DHT22;27555;50.808;4.402;2022-10-30T18:03:50;18.20;99.90